Time;durP1;ratioP1;P1;durP2;ratioP2;P2;SDS_P1;SDS_P2;PMS_P1;PMS_P2;Temp;Humidity;BMP_temperature;BMP_pressure;BME280_temperature;BME280_humidity;BME280_pressure;Samples;Min_cycle;Max_cycle;Signal;HPM_P1;HPM_P2
2023/01/21 00:01:52;;;;;;;34.55;25.13;;;-1.20;99.90;;;;;;4959107;28;89676;-31
2023/01/21 00:04:18;;;;;;;48.53;29.35;;;-1.10;99.90;;;;;;4967008;28;89502;-31
2023/01/21 00:06:44;;;;;;;41.85;30.55;;;-1.10;99.90;;;;;;4977170;28;89171;-32
2023/01/21 00:09:10;;;;;;;45.47;31.70;;;-1.20;99.90;;;;;;4959775;28;89814;-34
2023/01/21 00:11:36;;;;;;;45.83;30.02;;;-1.10;99.90;;;;;;4958895;28;89809;-32
2023/01/21 00:14:01;;;;;;;50.92;28.70;;;-1.10;99.90;;;;;;4959697;28;88586;-31
2023/01/21 00:16:27;;;;;;;40.60;29.67;;;-1.00;99.90;;;;;;4959828;28;90165;-33
2023/01/21 00:18:54;;;;;;;42.15;27.70;;;-1.00;99.90;;;;;;4966181;28;90220;-31
2023/01/21 00:21:20;;;;;;;44.10;30.20;;;-0.90;99.90;;;;;;4965087;28;90076;-30
2023/01/21 00:23:45;;;;;;;40.47;29.05;;;-0.80;99.90;;;;;;4960035;28;89566;-33
2023/01/21 00:26:11;;;;;;;52.92;33.20;;;-0.80;99.90;;;;;;4954988;28;88323;-30
2023/01/21 00:28:37;;;;;;;47.05;29.15;;;-0.70;99.90;;;;;;4959685;28;89848;-32
2023/01/21 00:31:05;;;;;;;44.33;28.75;;;-0.70;99.90;;;;;;4997488;28;89482;-30
2023/01/21 00:33:33;;;;;;;43.47;27.75;;;-0.60;99.90;;;;;;4986075;28;89889;-30
2023/01/21 00:36:08;;;;;;;42.47;31.63;;;-0.50;99.90;;;;;;4977533;28;88783;-30
2023/01/21 00:38:34;;;;;;;43.38;28.35;;;-0.50;99.90;;;;;;4965106;28;89507;-32
2023/01/21 00:41:01;;;;;;;47.60;32.42;;;-0.50;99.90;;;;;;4970370;28;91781;-32
2023/01/21 00:43:27;;;;;;;47.80;33.60;;;-0.50;99.90;;;;;;4940632;28;89118;-30
2023/01/21 00:45:53;;;;;;;50.60;32.53;;;-0.50;99.90;;;;;;4967057;28;89412;-30
2023/01/21 00:48:19;;;;;;;40.53;25.25;;;-0.50;99.90;;;;;;4979243;28;90305;-32
2023/01/21 00:50:44;;;;;;;55.47;36.05;;;-0.50;99.90;;;;;;4967796;28;89337;-33
2023/01/21 00:53:10;;;;;;;52.13;36.20;;;-0.40;99.90;;;;;;4967141;28;89198;-33
2023/01/21 00:55:35;;;;;;;42.13;32.75;;;-0.40;99.90;;;;;;4963560;28;89507;-36
2023/01/21 00:58:01;;;;;;;49.92;32.97;;;-0.40;99.90;;;;;;4959664;28;89506;-30
2023/01/21 01:00:26;;;;;;;50.47;34.38;;;-0.50;99.90;;;;;;4958137;28;89709;-30
2023/01/21 01:02:52;;;;;;;48.08;31.00;;;-0.50;99.90;;;;;;4966947;28;89368;-32
2023/01/21 01:05:18;;;;;;;47.28;30.50;;;-0.50;99.90;;;;;;4961969;28;90400;-31
2023/01/21 01:07:46;;;;;;;55.60;34.05;;;-0.50;99.90;;;;;;4967482;28;89941;-31
2023/01/21 01:10:12;;;;;;;44.40;30.63;;;-0.50;99.90;;;;;;4977777;28;89684;-30
2023/01/21 01:12:38;;;;;;;51.65;30.90;;;-0.50;99.90;;;;;;4977645;28;89816;-33
2023/01/21 01:15:04;;;;;;;48.35;30.05;;;-0.50;99.90;;;;;;4962692;28;89424;-31
2023/01/21 01:17:30;;;;;;;51.55;30.55;;;-0.40;99.90;;;;;;4958914;28;89702;-30
2023/01/21 01:19:57;;;;;;;50.67;29.20;;;-0.50;99.90;;;;;;4960478;28;89212;-30
2023/01/21 01:22:22;;;;;;;52.08;33.95;;;-0.50;99.90;;;;;;4970840;28;90106;-33
2023/01/21 01:24:48;;;;;;;51.30;32.92;;;-0.60;99.90;;;;;;4962315;28;89358;-32
2023/01/21 01:27:13;;;;;;;45.38;31.70;;;-0.60;99.90;;;;;;4962077;28;90253;-34
2023/01/21 01:29:39;;;;;;;45.90;30.05;;;-0.60;99.90;;;;;;4976402;28;90179;-31
2023/01/21 01:32:05;;;;;;;46.00;30.23;;;-0.60;99.90;;;;;;4973148;28;90558;-30
2023/01/21 01:34:30;;;;;;;44.80;29.17;;;-0.50;99.90;;;;;;4981478;28;89589;-32
2023/01/21 01:36:56;;;;;;;48.00;31.60;;;-0.60;99.90;;;;;;4978022;28;89841;-33
2023/01/21 01:39:22;;;;;;;47.33;32.75;;;-0.60;99.90;;;;;;4980730;28;88970;-33
2023/01/21 01:41:47;;;;;;;58.45;33.80;;;-0.60;99.90;;;;;;4978263;28;90473;-31
2023/01/21 01:44:50;;;;;;;45.88;28.55;;;-0.60;99.90;;;;;;4980501;28;89284;-35
2023/01/21 01:47:17;;;;;;;51.53;30.85;;;-0.60;99.90;;;;;;4979877;28;89965;-31
2023/01/21 01:49:43;;;;;;;52.05;32.72;;;-0.70;99.90;;;;;;4993763;28;89577;-31
2023/01/21 01:52:11;;;;;;;54.53;33.22;;;-0.70;99.90;;;;;;4980531;28;89042;-32
2023/01/21 01:54:45;;;;;;;39.47;22.48;;;-0.60;99.90;;;;;;4966488;28;89947;-30
2023/01/21 01:57:13;;;;;;;45.53;28.67;;;-0.60;99.90;;;;;;4980378;28;90147;-30
2023/01/21 01:59:40;;;;;;;48.35;33.05;;;-0.60;99.90;;;;;;4972151;28;89400;-30
2023/01/21 02:02:10;;;;;;;52.95;29.60;;;-0.70;99.90;;;;;;4976530;28;88477;-30
2023/01/21 02:04:44;;;;;;;58.05;36.55;;;-0.70;99.90;;;;;;4981071;28;88442;-35
2023/01/21 02:07:10;;;;;;;50.22;28.67;;;-0.70;99.90;;;;;;4976432;28;90401;-31
2023/01/21 02:09:36;;;;;;;53.47;31.98;;;-0.70;99.90;;;;;;4968151;28;89587;-32
2023/01/21 02:12:03;;;;;;;54.95;29.48;;;-0.60;99.90;;;;;;4997654;28;90897;-30
2023/01/21 02:14:30;;;;;;;61.50;24.63;;;-0.60;99.90;;;;;;4992636;28;89602;-31
2023/01/21 02:17:11;;;;;;;57.22;30.73;;;-0.50;99.90;;;;;;4986717;28;90079;-32
2023/01/21 02:19:53;;;;;;;103.93;30.33;;;-0.60;99.90;;;;;;4993111;28;90462;-29
2023/01/21 02:22:31;;;;;;;91.18;28.45;;;-0.60;99.90;;;;;;4981731;28;90504;-31
2023/01/21 02:25:05;;;;;;;68.85;27.80;;;-0.60;99.90;;;;;;4979607;28;88703;-30
2023/01/21 02:27:50;;;;;;;115.65;36.42;;;-0.60;99.90;;;;;;4984867;28;90141;-33
2023/01/21 02:30:25;;;;;;;190.07;40.85;;;-0.70;99.90;;;;;;4965683;28;89628;-31
2023/01/21 02:33:24;;;;;;;260.38;53.10;;;-0.60;99.90;;;;;;4960013;28;89427;-31
2023/01/21 02:36:11;;;;;;;148.35;41.90;;;-0.80;99.90;;;;;;4970564;28;89161;-30
2023/01/21 02:39:07;;;;;;;127.72;40.35;;;-0.80;99.90;;;;;;4960644;28;90376;-30
2023/01/21 02:41:35;;;;;;;205.82;55.65;;;-0.90;99.90;;;;;;4961853;28;89353;-33
2023/01/21 02:44:06;;;;;;;181.65;45.20;;;-0.80;99.90;;;;;;4973392;28;89522;-30
2023/01/21 02:46:41;;;;;;;251.90;56.45;;;-0.90;99.90;;;;;;4988006;28;91108;-32
2023/01/21 02:49:21;;;;;;;157.20;45.83;;;-0.90;99.90;;;;;;4989229;28;90579;-31
2023/01/21 02:51:47;;;;;;;160.18;44.95;;;-0.90;99.90;;;;;;4979892;28;89715;-31
2023/01/21 02:54:38;;;;;;;122.78;39.05;;;-0.90;99.90;;;;;;4979060;28;89243;-32
2023/01/21 02:57:13;;;;;;;130.77;42.97;;;-0.90;99.90;;;;;;4966287;28;90031;-32
2023/01/21 02:59:42;;;;;;;81.90;37.78;;;-0.90;99.90;;;;;;4960442;28;90302;-30
2023/01/21 03:02:30;;;;;;;93.18;38.17;;;-0.90;99.90;;;;;;4962319;28;89569;-32
2023/01/21 03:05:42;;;;;;;86.32;33.05;;;-0.90;99.90;;;;;;4980443;28;89151;-31
2023/01/21 03:08:25;;;;;;;108.88;38.53;;;-0.90;99.90;;;;;;4965013;28;88314;-31
2023/01/21 03:11:04;;;;;;;106.07;37.33;;;-0.90;99.90;;;;;;4967457;28;89797;-32
2023/01/21 03:19:15;;;;;;;93.78;38.65;;;-0.90;99.90;;;;;;4985851;28;88269;-32
2023/01/21 03:21:41;;;;;;;146.63;49.53;;;-0.90;99.90;;;;;;4979161;28;90510;-30
2023/01/21 03:24:10;;;;;;;99.15;42.08;;;-0.90;99.90;;;;;;4979389;28;89595;-31
2023/01/21 03:26:37;;;;;;;;;;;-0.90;99.90;;;;;;4966815;28;90226;-32
2023/01/21 03:29:13;;;;;;;67.18;32.00;;;-0.90;99.90;;;;;;4980744;28;87721;-32
2023/01/21 03:31:41;;;;;;;63.47;32.53;;;-0.90;99.90;;;;;;4978488;28;90224;-32
2023/01/21 03:34:10;;;;;;;63.53;31.98;;;-0.90;99.90;;;;;;4978201;28;89450;-33
2023/01/21 03:36:52;;;;;;;55.72;36.38;;;-0.90;99.90;;;;;;4978235;28;88564;-33
2023/01/21 03:39:34;;;;;;;67.63;37.38;;;-0.80;99.90;;;;;;4977902;28;90559;-30
2023/01/21 03:42:00;;;;;;;49.10;33.08;;;-0.80;99.90;;;;;;4977059;28;90331;-33
2023/01/21 03:44:26;;;;;;;64.05;37.92;;;-0.80;99.90;;;;;;4966386;28;89574;-32
2023/01/21 03:47:14;;;;;;;62.78;38.20;;;-0.70;99.90;;;;;;4976414;28;89847;-33
2023/01/21 03:49:42;;;;;;;62.72;38.22;;;-0.70;99.90;;;;;;4992229;28;90224;-34
2023/01/21 03:52:10;;;;;;;63.63;36.97;;;-0.70;99.90;;;;;;4979588;28;91018;-31
2023/01/21 03:54:36;;;;;;;49.08;31.88;;;-0.60;99.90;;;;;;4966026;28;89534;-34
2023/01/21 03:57:01;;;;;;;49.33;36.10;;;-0.60;99.90;;;;;;4978390;28;90128;-33
2023/01/21 03:59:27;;;;;;;54.40;37.55;;;-0.60;99.90;;;;;;4980076;28;88597;-31
2023/01/21 04:01:52;;;;;;;58.47;34.22;;;-0.60;99.90;;;;;;4978541;28;90165;-33
2023/01/21 04:04:18;;;;;;;58.95;38.88;;;-0.60;99.90;;;;;;4978895;28;90195;-31
2023/01/21 04:06:44;;;;;;;59.08;37.78;;;-0.60;99.90;;;;;;4978313;28;91232;-31
2023/01/21 04:09:10;;;;;;;52.13;37.63;;;-0.60;99.90;;;;;;4960661;28;90290;-30
2023/01/21 04:11:35;;;;;;;50.13;34.08;;;-0.60;99.90;;;;;;4959298;28;90174;-35
2023/01/21 04:14:01;;;;;;;52.97;35.63;;;-0.60;99.90;;;;;;4960204;28;89620;-31
2023/01/21 04:16:27;;;;;;;56.40;32.78;;;-0.60;99.90;;;;;;4972390;28;90225;-33
2023/01/21 04:18:53;;;;;;;56.70;37.40;;;-0.60;99.90;;;;;;4988310;28;89413;-32
2023/01/21 04:21:18;;;;;;;51.90;35.13;;;-0.60;99.90;;;;;;4965763;28;90408;-31
2023/01/21 04:23:44;;;;;;;65.60;37.30;;;-0.60;99.90;;;;;;4962672;28;88783;-33
2023/01/21 04:26:10;;;;;;;55.38;38.22;;;-0.60;99.90;;;;;;4972141;28;89643;-33
2023/01/21 04:28:36;;;;;;;53.92;36.20;;;-0.60;99.90;;;;;;4958727;28;89290;-36
2023/01/21 04:31:01;;;;;;;62.58;37.53;;;-0.70;99.90;;;;;;4958861;28;90723;-31
2023/01/21 04:33:27;;;;;;;53.95;36.30;;;-0.70;99.90;;;;;;4959226;28;89697;-31
2023/01/21 04:35:59;;;;;;;61.45;39.45;;;-0.70;99.90;;;;;;4959511;28;89479;-31
2023/01/21 04:38:26;;;;;;;59.30;37.83;;;-0.70;99.90;;;;;;4960280;28;89963;-31
2023/01/21 04:40:51;;;;;;;56.03;34.65;;;-0.80;99.90;;;;;;4960524;28;91138;-31
2023/01/21 04:43:17;;;;;;;60.05;37.40;;;-0.80;99.90;;;;;;4940966;28;89422;-31
2023/01/21 04:45:43;;;;;;;53.70;34.53;;;-0.80;99.90;;;;;;4959835;28;89453;-31
2023/01/21 04:48:08;;;;;;;51.53;34.13;;;-0.90;99.90;;;;;;4972588;28;89429;-31
2023/01/21 04:50:34;;;;;;;61.42;36.53;;;-0.80;99.90;;;;;;4971665;28;90996;-30
2023/01/21 04:52:59;;;;;;;56.97;35.08;;;-0.80;99.90;;;;;;4983498;28;90791;-29
2023/01/21 04:55:25;;;;;;;56.90;37.78;;;-0.80;99.90;;;;;;4959296;28;90540;-32
2023/01/21 04:57:51;;;;;;;57.85;36.22;;;-0.80;99.90;;;;;;4958283;28;88261;-30
2023/01/21 05:00:17;;;;;;;54.78;34.63;;;-0.70;99.90;;;;;;4958811;28;90179;-30
2023/01/21 05:02:42;;;;;;;60.22;35.55;;;-0.80;99.90;;;;;;4963233;28;89747;-32
2023/01/21 05:05:08;;;;;;;61.75;37.15;;;-0.70;99.90;;;;;;4967389;28;89482;-30
2023/01/21 05:07:34;;;;;;;47.50;35.15;;;-0.80;99.90;;;;;;4958823;28;88958;-33
2023/01/21 05:09:59;;;;;;;57.15;36.85;;;-0.80;99.90;;;;;;4960712;28;90601;-32
2023/01/21 05:12:26;;;;;;;54.35;36.08;;;-0.80;99.90;;;;;;4963000;28;89994;-34
2023/01/21 05:14:53;;;;;;;51.72;37.35;;;-0.80;99.90;;;;;;4972005;28;89641;-30
2023/01/21 05:17:19;;;;;;;52.80;34.50;;;-0.80;99.90;;;;;;4966818;28;89507;-31
2023/01/21 05:19:45;;;;;;;57.15;35.15;;;-0.80;99.90;;;;;;4969418;28;89574;-32
2023/01/21 05:22:10;;;;;;;57.78;36.13;;;-0.80;99.90;;;;;;4958976;28;89767;-33
2023/01/21 05:24:36;;;;;;;50.17;34.28;;;-0.80;99.90;;;;;;4958076;28;89674;-31
2023/01/21 05:27:02;;;;;;;52.08;33.55;;;-0.80;99.90;;;;;;4962678;28;89269;-31
2023/01/21 05:29:27;;;;;;;51.28;33.67;;;-0.80;99.90;;;;;;4977798;28;91471;-32
2023/01/21 05:31:53;;;;;;;52.17;35.00;;;-0.80;99.90;;;;;;4976931;28;90459;-32
2023/01/21 05:34:18;;;;;;;65.22;37.15;;;-0.70;99.90;;;;;;4978169;28;90862;-33
2023/01/21 05:36:44;;;;;;;57.42;35.50;;;-0.70;99.90;;;;;;4977238;28;89278;-30
2023/01/21 05:39:10;;;;;;;55.22;33.80;;;-0.70;99.90;;;;;;4978380;28;90402;-32
2023/01/21 05:41:35;;;;;;;58.55;35.47;;;-0.70;99.90;;;;;;4976080;28;90983;-34
2023/01/21 05:44:01;;;;;;;56.55;34.92;;;-0.70;99.90;;;;;;4977500;28;90158;-32
2023/01/21 05:46:26;;;;;;;53.88;35.55;;;-0.60;99.90;;;;;;4977137;28;89346;-33
2023/01/21 05:48:52;;;;;;;50.92;34.83;;;-0.60;99.90;;;;;;4990551;28;90292;-31
2023/01/21 05:51:17;;;;;;;57.15;37.88;;;-0.60;99.90;;;;;;4990958;28;89936;-31
2023/01/21 05:53:44;;;;;;;50.58;34.13;;;-0.50;99.90;;;;;;4976780;28;88583;-31
2023/01/21 05:56:09;;;;;;;52.92;31.80;;;-0.50;99.90;;;;;;4977092;28;88954;-32
2023/01/21 05:58:35;;;;;;;61.30;37.97;;;-0.50;99.90;;;;;;4977469;28;90560;-32
2023/01/21 06:01:01;;;;;;;46.65;30.83;;;-0.50;99.90;;;;;;4976531;28;89310;-33
2023/01/21 06:03:26;;;;;;;51.58;31.25;;;-0.50;99.90;;;;;;4976575;28;90046;-33
2023/01/21 06:05:52;;;;;;;54.40;33.22;;;-0.50;99.90;;;;;;4987305;28;90380;-32
2023/01/21 06:08:18;;;;;;;54.55;35.42;;;-0.50;99.90;;;;;;4976407;28;90361;-31
2023/01/21 06:10:44;;;;;;;55.67;34.08;;;-0.50;99.90;;;;;;4978117;28;89926;-31
2023/01/21 06:13:14;;;;;;;51.17;34.30;;;-0.40;99.90;;;;;;4980817;28;89290;-31
2023/01/21 06:15:40;;;;;;;51.65;34.35;;;-0.40;99.90;;;;;;4980042;28;89623;-34
2023/01/21 06:18:06;;;;;;;47.35;33.38;;;-0.40;99.90;;;;;;4982487;28;90464;-30
2023/01/21 06:20:32;;;;;;;56.17;34.20;;;-0.40;99.90;;;;;;4980362;28;89369;-32
2023/01/21 06:22:59;;;;;;;51.45;31.02;;;-0.40;99.90;;;;;;4964151;28;89746;-31
2023/01/21 06:25:25;;;;;;;49.00;32.67;;;-0.40;99.90;;;;;;4981300;28;89754;-31
2023/01/21 06:27:54;;;;;;;49.90;32.78;;;-0.30;99.90;;;;;;4979148;28;90315;-32
2023/01/21 06:30:20;;;;;;;51.85;33.33;;;-0.40;99.90;;;;;;4979970;28;90197;-30
2023/01/21 06:32:45;;;;;;;52.45;33.33;;;-0.30;99.90;;;;;;4980096;28;90775;-31
2023/01/21 06:35:11;;;;;;;53.78;33.28;;;-0.30;99.90;;;;;;4980286;28;87958;-32
2023/01/21 06:37:36;;;;;;;46.72;31.55;;;-0.30;99.90;;;;;;4979266;28;90262;-31
2023/01/21 06:40:03;;;;;;;42.10;30.42;;;-0.30;99.90;;;;;;4979886;28;90840;-31
2023/01/21 06:42:28;;;;;;;55.40;32.55;;;-0.30;99.90;;;;;;4979540;28;90388;-33
2023/01/21 06:44:54;;;;;;;45.38;33.08;;;-0.30;99.90;;;;;;4979183;28;88342;-32
2023/01/21 06:47:19;;;;;;;52.03;32.85;;;-0.30;99.90;;;;;;4978606;28;90375;-31
2023/01/21 06:49:45;;;;;;;49.05;31.38;;;-0.30;99.90;;;;;;4986331;28;89721;-31
2023/01/21 06:52:10;;;;;;;40.17;30.75;;;-0.30;99.90;;;;;;4960198;28;90276;-31
2023/01/21 06:54:36;;;;;;;44.67;31.05;;;-0.20;99.90;;;;;;4966556;28;90449;-32
2023/01/21 06:57:02;;;;;;;46.95;31.27;;;-0.20;99.90;;;;;;4978694;28;89056;-31
2023/01/21 06:59:27;;;;;;;56.97;33.40;;;-0.20;99.90;;;;;;4980193;28;89977;-33
2023/01/21 07:01:53;;;;;;;46.53;31.83;;;-0.20;99.90;;;;;;4979096;28;90343;-32
2023/01/21 07:04:19;;;;;;;47.17;31.58;;;-0.10;99.90;;;;;;4979956;28;89126;-30
2023/01/21 07:06:45;;;;;;;43.17;31.17;;;-0.10;99.90;;;;;;4978018;28;90177;-32
2023/01/21 07:09:10;;;;;;;56.25;34.15;;;-0.10;99.90;;;;;;4978174;28;89688;-31
2023/01/21 07:11:36;;;;;;;45.83;31.38;;;-0.10;99.90;;;;;;4977757;28;89125;-31
2023/01/21 07:14:02;;;;;;;44.72;30.60;;;-0.10;99.90;;;;;;4978593;28;88291;-30
2023/01/21 07:16:27;;;;;;;51.55;30.40;;;-0.10;99.90;;;;;;4977192;28;90376;-31
2023/01/21 07:18:53;;;;;;;48.22;31.30;;;-0.10;99.90;;;;;;4989704;28;90723;-32
2023/01/21 07:21:18;;;;;;;49.58;34.88;;;-0.10;99.90;;;;;;4982256;28;90541;-31
2023/01/21 07:23:45;;;;;;;50.40;32.13;;;-0.10;99.90;;;;;;4979600;28;88025;-31
2023/01/21 07:26:11;;;;;;;46.80;32.42;;;-0.10;99.90;;;;;;4980642;28;90173;-33
2023/01/21 07:28:36;;;;;;;41.72;30.13;;;-0.10;99.90;;;;;;4980985;28;89859;-31
2023/01/21 07:31:03;;;;;;;48.13;31.33;;;-0.10;99.90;;;;;;4980250;28;89563;-31
2023/01/21 07:33:28;;;;;;;45.67;32.00;;;-0.10;99.90;;;;;;4979490;28;89600;-30
2023/01/21 07:35:54;;;;;;;54.65;34.58;;;-0.10;99.90;;;;;;4979117;28;89894;-30
2023/01/21 07:38:20;;;;;;;47.15;30.02;;;0.00;99.90;;;;;;4978455;28;89656;-31
2023/01/21 07:40:49;;;;;;;45.30;30.13;;;0.00;99.90;;;;;;4979052;28;89532;-30
2023/01/21 07:43:15;;;;;;;55.88;35.88;;;0.00;99.90;;;;;;4979422;28;89385;-33
2023/01/21 07:45:41;;;;;;;44.22;29.98;;;0.00;99.90;;;;;;4961646;28;90219;-31
2023/01/21 07:48:07;;;;;;;44.05;31.27;;;0.00;99.90;;;;;;4972523;28;89602;-33
2023/01/21 07:50:33;;;;;;;52.83;36.03;;;0.00;99.90;;;;;;4972961;28;89670;-31
2023/01/21 07:52:59;;;;;;;50.42;30.65;;;0.00;99.90;;;;;;4959684;28;89160;-34
2023/01/21 07:55:25;;;;;;;55.08;32.83;;;0.00;99.90;;;;;;4960271;28;90249;-32
2023/01/21 07:57:50;;;;;;;45.25;32.20;;;0.00;99.90;;;;;;4960441;28;90057;-30
2023/01/21 08:00:16;;;;;;;44.72;30.38;;;0.10;99.90;;;;;;4959163;28;89488;-31
2023/01/21 08:02:42;;;;;;;45.92;30.88;;;0.00;99.90;;;;;;4959609;28;89267;-30
2023/01/21 08:05:09;;;;;;;46.30;33.00;;;0.10;99.90;;;;;;4958923;28;89919;-32
2023/01/21 08:07:35;;;;;;;43.03;30.40;;;0.10;99.90;;;;;;4954610;28;90576;-30
2023/01/21 08:10:01;;;;;;;51.65;33.45;;;0.10;99.90;;;;;;4961102;28;91229;-31
2023/01/21 08:12:26;;;;;;;42.38;29.75;;;0.10;99.90;;;;;;4970921;28;88718;-30
2023/01/21 08:14:52;;;;;;;54.15;32.28;;;0.10;99.90;;;;;;4965906;28;90090;-31
2023/01/21 08:17:18;;;;;;;49.45;30.15;;;0.10;99.90;;;;;;4970780;28;90820;-31
2023/01/21 08:19:43;;;;;;;46.97;33.10;;;0.10;99.90;;;;;;4988137;28;89805;-31
2023/01/21 08:22:09;;;;;;;45.60;29.23;;;0.10;99.90;;;;;;4978965;28;89058;-30
2023/01/21 08:24:34;;;;;;;43.10;30.27;;;0.20;99.90;;;;;;4978541;28;90089;-33
2023/01/21 08:27:00;;;;;;;49.25;31.45;;;0.20;99.90;;;;;;4977759;28;91011;-32
2023/01/21 08:29:26;;;;;;;47.22;31.98;;;0.20;99.90;;;;;;4965511;28;89188;-31
2023/01/21 08:31:52;;;;;;;44.92;32.60;;;0.20;99.90;;;;;;4958225;28;89472;-32
2023/01/21 08:34:18;;;;;;;45.70;31.60;;;0.20;99.90;;;;;;4960606;28;90227;-31
2023/01/21 08:36:43;;;;;;;46.45;31.33;;;0.20;99.90;;;;;;4957483;28;88678;-34
2023/01/21 08:39:12;;;;;;;43.80;31.80;;;0.30;99.90;;;;;;4974767;28;90253;-30
2023/01/21 08:41:39;;;;;;;43.45;28.23;;;0.30;99.90;;;;;;4971170;28;88825;-31
2023/01/21 08:44:05;;;;;;;40.03;27.90;;;0.30;99.90;;;;;;4970358;28;89677;-32
2023/01/21 08:46:31;;;;;;;40.85;27.08;;;0.30;99.90;;;;;;4966594;28;88104;-33
2023/01/21 08:48:57;;;;;;;45.85;28.80;;;0.30;99.90;;;;;;4988292;28;89963;-32
2023/01/21 08:51:22;;;;;;;48.15;31.60;;;0.40;99.90;;;;;;4965447;28;89387;-33
2023/01/21 08:53:49;;;;;;;50.65;31.15;;;0.40;99.90;;;;;;4977258;28;90739;-31
2023/01/21 08:56:14;;;;;;;45.35;29.30;;;0.40;99.90;;;;;;4963501;28;89895;-32
2023/01/21 08:58:40;;;;;;;43.95;30.52;;;0.40;99.90;;;;;;4963954;28;90412;-34
2023/01/21 09:01:08;;;;;;;46.75;30.52;;;0.40;99.90;;;;;;4968472;28;88910;-30
2023/01/21 09:03:33;;;;;;;41.87;25.80;;;0.40;99.90;;;;;;4963957;28;90714;-32
2023/01/21 09:06:01;;;;;;;44.55;29.63;;;0.40;99.90;;;;;;4951980;28;89460;-30
2023/01/21 09:08:27;;;;;;;41.17;26.90;;;0.40;99.90;;;;;;4970671;28;89898;-30
2023/01/21 09:10:59;;;;;;;41.60;29.05;;;0.50;99.90;;;;;;4976059;28;89974;-30
2023/01/21 09:13:29;;;;;;;39.28;28.60;;;0.50;99.90;;;;;;4968850;28;91273;-30
2023/01/21 09:15:55;;;;;;;42.33;32.47;;;0.50;99.90;;;;;;4972296;28;90010;-32
2023/01/21 09:18:20;;;;;;;43.15;28.75;;;0.50;99.90;;;;;;4975943;28;89886;-30
2023/01/21 09:20:46;;;;;;;51.17;30.13;;;0.50;99.90;;;;;;4983497;28;88922;-33
2023/01/21 09:23:24;;;;;;;39.97;29.65;;;0.60;99.90;;;;;;4982032;28;90968;-31
2023/01/21 09:25:51;;;;;;;47.53;28.73;;;0.60;99.90;;;;;;4968352;28;89539;-31
2023/01/21 09:28:17;;;;;;;41.55;28.23;;;0.60;99.90;;;;;;4975842;28;89065;-31
2023/01/21 09:30:43;;;;;;;41.13;30.02;;;0.60;99.90;;;;;;4974938;28;89256;-33
2023/01/21 09:33:08;;;;;;;40.17;28.17;;;0.60;99.90;;;;;;4975034;28;90280;-31
2023/01/21 09:35:34;;;;;;;42.35;30.10;;;0.70;99.90;;;;;;4975008;28;90332;-30
2023/01/21 09:37:59;;;;;;;42.30;27.95;;;0.70;99.90;;;;;;4974466;28;89524;-31
2023/01/21 09:40:25;;;;;;;41.80;28.42;;;0.70;99.90;;;;;;4977390;28;88561;-33
2023/01/21 09:42:51;;;;;;;40.13;27.67;;;0.70;99.90;;;;;;4955801;28;89043;-33
2023/01/21 09:45:18;;;;;;;42.65;30.83;;;0.70;99.90;;;;;;5004176;22;90808;-33
2023/01/21 09:47:47;;;;;;;40.92;27.90;;;0.70;99.90;;;;;;5006464;27;90569;-34
2023/01/21 09:50:17;;;;;;;40.25;29.77;;;0.70;99.90;;;;;;5014105;27;89692;-33
2023/01/21 09:52:52;;;;;;;38.50;26.35;;;0.80;99.90;;;;;;5001110;28;89610;-32
2023/01/21 09:55:32;;;;;;;40.95;27.67;;;0.80;99.90;;;;;;5003383;27;89820;-33
2023/01/21 09:58:09;;;;;;;43.58;26.48;;;0.80;99.90;;;;;;4997594;27;89632;-31
2023/01/21 10:00:40;;;;;;;38.13;26.70;;;0.90;99.90;;;;;;5006175;27;88688;-33
2023/01/21 10:03:15;;;;;;;39.35;29.52;;;0.90;99.90;;;;;;5005615;28;90254;-31
2023/01/21 10:05:59;;;;;;;43.42;27.92;;;0.90;99.90;;;;;;5012056;28;89936;-31
2023/01/21 10:08:28;;;;;;;43.15;31.55;;;0.90;99.90;;;;;;5010175;28;89515;-32
2023/01/21 10:11:24;;;;;;;38.13;30.02;;;0.90;99.90;;;;;;5002835;28;90582;-31
2023/01/21 10:14:09;;;;;;;45.20;31.30;;;1.00;99.90;;;;;;5000656;28;89858;-31
2023/01/21 10:16:55;;;;;;;42.28;29.77;;;1.00;99.90;;;;;;5004564;27;90096;-35
2023/01/21 10:19:27;;;;;;;44.53;28.13;;;1.00;99.90;;;;;;5013389;28;90672;-31
2023/01/21 10:22:04;;;;;;;44.47;29.50;;;1.00;99.90;;;;;;4999083;27;89360;-33
2023/01/21 10:24:31;;;;;;;47.45;31.88;;;1.00;99.90;;;;;;5000875;27;89787;-31
2023/01/21 10:26:58;;;;;;;43.67;30.05;;;1.10;99.90;;;;;;4998629;27;89746;-34
2023/01/21 10:29:25;;;;;;;44.13;29.85;;;1.10;99.90;;;;;;4999894;28;90106;-33
2023/01/21 10:32:01;;;;;;;49.00;29.40;;;1.20;99.90;;;;;;5018687;27;89431;-34
2023/01/21 10:34:34;;;;;;;46.45;30.08;;;1.20;99.90;;;;;;5002314;27;90231;-33
2023/01/21 10:37:02;;;;;;;45.20;31.30;;;1.30;99.90;;;;;;4998709;27;90383;-33
2023/01/21 10:39:34;;;;;;;;;;;1.30;99.90;;;;;;4999795;27;90564;-31
2023/01/21 10:42:19;;;;;;;38.70;27.90;;;1.40;99.90;;;;;;5001730;27;89536;-33
2023/01/21 10:45:23;;;;;;;40.70;28.33;;;1.50;99.90;;;;;;4998912;27;90207;-33
2023/01/21 10:48:03;;;;;;;48.58;30.33;;;1.50;99.90;;;;;;4999271;28;89742;-31
2023/01/21 10:51:13;;;;;;;40.47;31.20;;;1.70;99.90;;;;;;4999807;27;89396;-33
2023/01/21 10:53:49;;;;;;;45.88;32.75;;;1.80;99.90;;;;;;4997445;27;88590;-34
2023/01/21 10:56:25;;;;;;;50.35;32.78;;;1.90;99.90;;;;;;5001670;28;89985;-32
2023/01/21 10:59:00;;;;;;;43.90;31.63;;;2.00;99.90;;;;;;5003978;27;88347;-31
2023/01/21 11:01:36;;;;;;;46.00;34.10;;;2.10;99.90;;;;;;5004214;27;90520;-33
2023/01/21 11:04:18;;;;;;;52.25;35.15;;;2.20;99.90;;;;;;5005349;27;89814;-32
2023/01/21 11:06:56;;;;;;;46.10;33.08;;;2.20;99.90;;;;;;5002643;27;90153;-33
2023/01/21 11:09:25;;;;;;;47.38;33.08;;;2.10;99.90;;;;;;5017582;27;91173;-32
2023/01/21 11:11:50;;;;;;;43.05;33.80;;;2.10;99.90;;;;;;5016093;27;89383;-31
2023/01/21 11:14:16;;;;;;;49.95;35.45;;;2.10;99.90;;;;;;5003089;28;89881;-33
2023/01/21 11:16:47;;;;;;;46.97;32.20;;;2.10;99.90;;;;;;5004449;27;90512;-32
2023/01/21 11:19:15;;;;;;;47.45;35.03;;;2.10;99.90;;;;;;5010382;28;88470;-31
2023/01/21 11:22:04;;;;;;;50.17;34.75;;;2.20;99.90;;;;;;5013118;28;89554;-31
2023/01/21 11:24:45;;;;;;;51.80;32.40;;;2.20;99.90;;;;;;5007866;28;88415;-33
2023/01/21 11:27:35;;;;;;;42.83;32.47;;;2.30;99.90;;;;;;5004891;28;90127;-32
2023/01/21 11:30:02;;;;;;;51.15;34.67;;;2.30;99.90;;;;;;5008900;27;90182;-33
2023/01/21 11:32:29;;;;;;;45.40;34.45;;;2.40;99.90;;;;;;5008946;27;90454;-32
2023/01/21 11:35:19;;;;;;;48.25;34.03;;;2.50;99.90;;;;;;5007186;28;89490;-33
2023/01/21 11:37:45;;;;;;;44.15;32.22;;;2.50;99.90;;;;;;5011542;27;90633;-31
2023/01/21 11:40:20;;;;;;;41.45;32.20;;;2.50;99.90;;;;;;5012604;27;89413;-31
2023/01/21 11:42:54;;;;;;;51.92;35.03;;;2.50;99.90;;;;;;5012647;27;90525;-31
2023/01/21 11:45:32;;;;;;;44.85;33.40;;;2.50;99.90;;;;;;4996451;27;90076;-32
2023/01/21 11:47:59;;;;;;;50.08;34.33;;;2.50;99.90;;;;;;5004127;28;90223;-32
2023/01/21 11:50:29;;;;;;;48.95;35.13;;;2.60;99.90;;;;;;4999952;28;89987;-32
2023/01/21 11:53:07;;;;;;;48.03;34.85;;;2.50;99.90;;;;;;5006973;28;88287;-31
2023/01/21 11:55:41;;;;;;;40.72;31.00;;;2.50;99.90;;;;;;5012929;28;90135;-34
2023/01/21 11:58:34;;;;;;;48.03;34.05;;;2.60;99.90;;;;;;5007021;28;90141;-33
2023/01/21 12:01:04;;;;;;;45.35;34.80;;;2.60;99.90;;;;;;5004706;28;89455;-32
2023/01/21 12:03:38;;;;;;;51.00;35.70;;;2.60;99.90;;;;;;5004089;28;89284;-31
2023/01/21 12:06:05;;;;;;;47.38;34.17;;;2.60;99.90;;;;;;5002537;28;90828;-33
2023/01/21 12:08:34;;;;;;;54.28;34.50;;;2.70;99.90;;;;;;5010283;27;90137;-32
2023/01/21 12:11:01;;;;;;;45.67;34.53;;;2.70;99.90;;;;;;5005564;27;89898;-34
2023/01/21 12:14:02;;;;;;;51.33;35.50;;;2.70;99.90;;;;;;5013751;28;89705;-32
2023/01/21 12:16:44;;;;;;;47.63;35.00;;;2.80;99.90;;;;;;5015913;27;87694;-31
2023/01/21 12:19:49;;;;;;;48.00;34.67;;;2.80;99.90;;;;;;5008074;28;90354;-33
2023/01/21 12:22:23;;;;;;;48.47;33.83;;;2.80;99.90;;;;;;5005821;28;90231;-32
2023/01/21 12:25:06;;;;;;;50.65;34.80;;;2.90;99.90;;;;;;5015467;28;90810;-31
2023/01/21 12:27:41;;;;;;;46.45;34.85;;;3.00;99.90;;;;;;5006048;28;89458;-32
2023/01/21 12:30:30;;;;;;;51.17;32.63;;;3.00;99.90;;;;;;5006024;28;90389;-33
2023/01/21 12:33:16;;;;;;;47.20;34.53;;;3.00;99.90;;;;;;5016012;28;89686;-32
2023/01/21 12:35:50;;;;;;;41.35;32.88;;;3.00;99.90;;;;;;5009812;28;89868;-32
2023/01/21 12:38:22;;;;;;;52.22;35.30;;;3.00;99.90;;;;;;5009014;28;89356;-33
2023/01/21 12:40:59;;;;;;;48.33;35.67;;;3.10;99.90;;;;;;5010432;28;89897;-32
2023/01/21 12:43:32;;;;;;;46.63;34.25;;;3.10;99.90;;;;;;5007266;27;88843;-33
2023/01/21 12:46:09;;;;;;;51.40;35.67;;;3.10;99.90;;;;;;4995289;28;89730;-32
2023/01/21 12:48:42;;;;;;;42.70;29.67;;;3.10;99.90;;;;;;5009633;28;89797;-32
2023/01/21 12:51:16;;;;;;;48.20;33.72;;;3.20;99.90;;;;;;5010558;27;90633;-30